createdAt,value
2022-11-29T00:01:34.572Z,10.53
2022-11-29T00:04:02.348Z,11.63
2022-11-29T00:06:31.236Z,10.57
2022-11-29T00:09:00.584Z,11.10
2022-11-29T00:11:49.025Z,11.10
2022-11-29T00:14:17.618Z,10.60
2022-11-29T00:16:44.851Z,10.17
2022-11-29T00:19:12.981Z,10.83
2022-11-29T00:21:39.677Z,10.47
2022-11-29T00:24:06.857Z,10.50
2022-11-29T00:26:33.473Z,11.67
2022-11-29T00:29:00.476Z,10.30
2022-11-29T00:31:33.345Z,10.87
2022-11-29T00:34:02.300Z,10.77
2022-11-29T00:36:29.707Z,11.33
2022-11-29T00:38:56.524Z,11.10
2022-11-29T00:41:23.163Z,10.67
2022-11-29T00:43:49.779Z,11.70
2022-11-29T00:46:17.073Z,12.23
2022-11-29T00:48:43.983Z,11.07
2022-11-29T00:51:10.743Z,10.73
2022-11-29T00:53:38.266Z,10.93
2022-11-29T00:56:06.291Z,12.20
2022-11-29T00:58:35.963Z,11.03
2022-11-29T01:01:02.844Z,10.80
2022-11-29T01:03:29.863Z,11.03
2022-11-29T01:06:09.965Z,11.10
2022-11-29T01:08:37.219Z,10.93
2022-11-29T01:11:10.926Z,11.90
2022-11-29T01:13:38.160Z,11.83
2022-11-29T01:16:06.089Z,11.63
2022-11-29T01:18:33.454Z,11.77
2022-11-29T01:21:09.526Z,11.73
2022-11-29T01:23:37.204Z,12.57
2022-11-29T01:26:13.364Z,12.33
2022-11-29T01:28:41.429Z,11.17
2022-11-29T01:31:10.346Z,11.80
2022-11-29T01:33:37.985Z,11.13
2022-11-29T01:36:05.926Z,11.27
2022-11-29T01:38:32.815Z,11.60
2022-11-29T01:41:03.471Z,11.90
2022-11-29T01:43:31.017Z,11.63
2022-11-29T01:45:58.009Z,12.60
2022-11-29T01:48:31.004Z,12.37
2022-11-29T01:51:00.685Z,11.93
2022-11-29T01:53:28.115Z,12.10
2022-11-29T01:56:01.180Z,12.57
2022-11-29T01:58:28.969Z,11.60
2022-11-29T02:00:57.540Z,13.20
2022-11-29T02:03:24.644Z,11.20
2022-11-29T02:05:53.071Z,12.97
2022-11-29T02:08:31.528Z,12.30
2022-11-29T02:10:58.509Z,12.23
2022-11-29T02:13:30.651Z,13.17
2022-11-29T02:16:10.147Z,13.10
2022-11-29T02:18:54.668Z,12.20
2022-11-29T02:21:36.417Z,12.03
2022-11-29T02:24:44.374Z,11.67
2022-11-29T02:27:39.795Z,12.20
2022-11-29T02:30:16.557Z,13.30
2022-11-29T02:32:43.519Z,12.67
2022-11-29T02:35:34.756Z,11.87
2022-11-29T02:38:10.072Z,11.60
2022-11-29T02:40:57.194Z,12.90
2022-11-29T02:43:45.467Z,10.80
2022-11-29T02:46:36.813Z,11.60
2022-11-29T02:49:16.958Z,13.03
2022-11-29T02:52:01.731Z,14.37
2022-11-29T02:54:58.984Z,11.93
2022-11-29T02:57:45.691Z,12.40
2022-11-29T03:00:18.800Z,11.90
2022-11-29T03:03:20.333Z,11.57
2022-11-29T03:05:59.086Z,12.00
2022-11-29T03:09:01.508Z,13.63
2022-11-29T03:11:52.808Z,11.40
2022-11-29T03:14:30.155Z,12.03
2022-11-29T03:17:35.585Z,13.30
2022-11-29T03:20:30.803Z,12.97
2022-11-29T03:23:06.172Z,12.63
2022-11-29T03:25:45.536Z,11.20
2022-11-29T03:28:21.655Z,12.17
2022-11-29T03:31:07.066Z,11.20
2022-11-29T03:33:51.264Z,11.03
2022-11-29T03:36:20.925Z,12.07
2022-11-29T03:38:48.278Z,13.17
2022-11-29T03:41:17.949Z,12.73
2022-11-29T03:44:03.145Z,13.50
2022-11-29T03:46:30.204Z,13.00
2022-11-29T03:49:08.854Z,13.20
2022-11-29T03:52:15.060Z,12.60
2022-11-29T03:55:02.865Z,13.97
2022-11-29T03:58:09.824Z,12.10
2022-11-29T04:00:49.820Z,12.07
2022-11-29T04:03:32.442Z,12.63
2022-11-29T04:06:14.510Z,13.03
2022-11-29T04:09:02.717Z,14.53
2022-11-29T04:12:05.063Z,13.10
2022-11-29T04:14:34.796Z,12.97
2022-11-29T04:17:24.677Z,11.60
2022-11-29T04:19:56.956Z,11.93
2022-11-29T04:23:01.862Z,12.13
2022-11-29T04:26:05.682Z,12.57
2022-11-29T04:29:07.900Z,13.00
2022-11-29T04:31:53.330Z,12.27
2022-11-29T04:34:44.018Z,12.73
2022-11-29T04:37:37.277Z,12.60
2022-11-29T04:40:16.082Z,14.00
2022-11-29T04:43:15.089Z,11.50
2022-11-29T04:46:21.295Z,13.17
2022-11-29T04:49:15.005Z,11.67
2022-11-29T04:52:00.171Z,12.10
2022-11-29T04:54:57.013Z,13.33
2022-11-29T04:57:57.564Z,12.63
2022-11-29T05:00:25.083Z,13.27
2022-11-29T05:03:00.077Z,12.37
2022-11-29T05:05:52.528Z,13.23
2022-11-29T05:08:46.755Z,13.47
2022-11-29T05:11:27.996Z,12.70
2022-11-29T05:14:25.501Z,13.77
2022-11-29T05:17:18.964Z,12.90
2022-11-29T05:20:03.697Z,13.10
2022-11-29T05:22:50.232Z,13.83
2022-11-29T05:25:40.940Z,12.80
2022-11-29T05:28:20.841Z,13.13
2022-11-29T05:31:19.574Z,12.87
2022-11-29T05:34:05.055Z,14.80
2022-11-29T05:36:51.434Z,12.03
2022-11-29T05:39:55.932Z,12.90
2022-11-29T05:42:49.984Z,12.77
2022-11-29T05:45:28.555Z,12.50
2022-11-29T05:48:04.398Z,12.10
2022-11-29T05:50:40.066Z,13.07
2022-11-29T05:53:44.256Z,12.60
2022-11-29T05:56:35.033Z,12.60
2022-11-29T05:59:09.757Z,10.77
2022-11-29T06:02:05.331Z,13.07
2022-11-29T06:04:40.734Z,11.50
2022-11-29T06:07:16.595Z,12.80
2022-11-29T06:10:11.409Z,12.23
2022-11-29T06:12:38.860Z,11.50
2022-11-29T06:15:37.333Z,10.70
2022-11-29T06:18:28.452Z,11.67
2022-11-29T06:21:10.860Z,10.17
2022-11-29T06:23:37.892Z,10.97
2022-11-29T06:26:36.168Z,10.23
2022-11-29T06:29:23.845Z,8.47
2022-11-29T06:31:58.307Z,9.73
2022-11-29T06:34:56.341Z,9.80
2022-11-29T06:37:33.887Z,10.37
2022-11-29T06:40:01.058Z,10.63
2022-11-29T06:42:28.068Z,8.67
2022-11-29T06:44:55.079Z,9.00
2022-11-29T06:47:27.230Z,8.57
2022-11-29T06:50:09.267Z,8.07
2022-11-29T06:52:49.277Z,8.70
2022-11-29T06:55:57.460Z,8.70
2022-11-29T06:58:37.682Z,7.83
2022-11-29T07:01:33.465Z,7.93
2022-11-29T07:04:30.797Z,8.27
2022-11-29T07:06:57.669Z,8.70
2022-11-29T07:09:28.525Z,8.17
2022-11-29T07:11:55.693Z,7.33
2022-11-29T07:14:22.888Z,7.73
2022-11-29T07:16:54.460Z,7.23
2022-11-29T07:19:41.297Z,8.10
2022-11-29T07:22:54.564Z,7.10
2022-11-29T07:25:39.945Z,7.00
2022-11-29T07:28:29.601Z,7.17
2022-11-29T07:31:10.996Z,7.70
2022-11-29T07:33:58.592Z,8.57
2022-11-29T07:36:25.591Z,7.87
2022-11-29T07:39:21.193Z,8.80
2022-11-29T07:42:04.431Z,8.33
2022-11-29T07:44:55.852Z,9.77
2022-11-29T07:47:22.851Z,10.60
2022-11-29T07:49:49.880Z,9.57
2022-11-29T07:52:17.355Z,9.57
2022-11-29T07:54:44.619Z,9.03
2022-11-29T07:57:11.782Z,9.27
2022-11-29T07:59:38.776Z,10.80
2022-11-29T08:02:11.483Z,9.70
2022-11-29T08:04:44.843Z,8.97
2022-11-29T08:07:12.187Z,10.00
2022-11-29T08:09:39.232Z,9.97
2022-11-29T08:12:06.392Z,8.77
2022-11-29T08:14:33.341Z,9.93
2022-11-29T08:17:00.319Z,11.20
2022-11-29T08:19:26.944Z,9.80
2022-11-29T08:21:54.050Z,11.07
2022-11-29T08:24:21.038Z,11.73
2022-11-29T08:26:48.048Z,17.50
2022-11-29T08:29:15.252Z,14.27
2022-11-29T08:31:41.902Z,13.43
2022-11-29T08:34:10.512Z,12.40
2022-11-29T08:36:37.639Z,10.40
2022-11-29T08:39:09.221Z,13.27
2022-11-29T08:41:36.408Z,15.47
2022-11-29T08:44:05.232Z,15.57
2022-11-29T08:46:50.867Z,12.80
2022-11-29T08:49:17.855Z,10.77
2022-11-29T08:51:44.912Z,11.37
2022-11-29T08:54:11.925Z,10.87
2022-11-29T08:59:25.445Z,9.83
2022-11-29T09:01:52.501Z,10.63
2022-11-29T09:04:19.511Z,13.37
2022-11-29T09:06:49.414Z,13.33
2022-11-29T09:09:16.550Z,10.63
2022-11-29T09:11:48.103Z,10.37
2022-11-29T09:14:16.647Z,10.83
2022-11-29T09:19:34.376Z,10.87
2022-11-29T09:22:01.418Z,11.07
2022-11-29T09:24:28.403Z,10.73
2022-11-29T09:26:55.460Z,13.00
2022-11-29T09:29:22.492Z,12.10
2022-11-29T09:31:49.168Z,13.40
2022-11-29T09:34:18.301Z,11.87
2022-11-29T09:36:45.211Z,11.90
2022-11-29T09:39:12.383Z,11.70
2022-11-29T09:42:09.630Z,12.30
2022-11-29T09:45:07.608Z,11.73
2022-11-29T09:47:59.157Z,11.47
2022-11-29T09:50:36.345Z,13.13
2022-11-29T09:53:18.812Z,13.27
2022-11-29T09:56:10.673Z,13.97
2022-11-29T09:59:00.953Z,13.40
2022-11-29T10:01:37.419Z,12.20
2022-11-29T10:04:10.799Z,12.37
2022-11-29T10:06:43.405Z,11.03
2022-11-29T10:09:33.330Z,12.03
2022-11-29T10:12:06.359Z,11.90
2022-11-29T10:14:44.309Z,12.57
2022-11-29T10:17:23.902Z,13.03
2022-11-29T10:19:57.413Z,11.57
2022-11-29T10:22:39.301Z,12.63
2022-11-29T10:25:10.337Z,12.33
2022-11-29T10:27:40.594Z,13.23
2022-11-29T10:48:37.095Z,16.53
2022-11-29T10:51:04.227Z,14.57
2022-11-29T10:53:35.895Z,14.77
2022-11-29T10:56:13.947Z,14.83
2022-11-29T10:58:57.449Z,17.67
2022-11-29T11:01:26.060Z,19.43
2022-11-29T11:03:54.626Z,18.37
2022-11-29T11:06:24.870Z,17.13
2022-11-29T11:08:57.125Z,17.63
2022-11-29T11:11:30.376Z,18.73
2022-11-29T11:14:20.472Z,15.57
2022-11-29T11:16:47.277Z,17.23
2022-11-29T11:19:34.232Z,16.30
2022-11-29T11:22:04.422Z,17.27
2022-11-29T11:24:41.019Z,17.13
2022-11-29T11:27:07.781Z,16.57
2022-11-29T11:29:40.865Z,15.63
2022-11-29T11:32:27.802Z,16.53
2022-11-29T11:34:59.692Z,14.97
2022-11-29T11:37:33.516Z,17.47
2022-11-29T11:40:26.314Z,16.73
2022-11-29T11:42:53.458Z,16.07
2022-11-29T11:45:26.175Z,17.33
2022-11-29T11:47:56.284Z,20.93
2022-11-29T11:50:58.152Z,17.47
2022-11-29T11:53:31.457Z,15.90
2022-11-29T11:55:58.471Z,17.70
2022-11-29T11:58:50.228Z,18.00
2022-11-29T12:01:37.628Z,17.53
2022-11-29T12:04:23.323Z,17.20
2022-11-29T12:06:53.743Z,17.53
2022-11-29T12:09:30.576Z,19.10
2022-11-29T12:12:11.357Z,17.03
2022-11-29T12:15:05.262Z,16.93
2022-11-29T12:18:03.121Z,16.73
2022-11-29T12:20:42.283Z,16.27
2022-11-29T12:23:11.818Z,16.00
2022-11-29T12:26:05.419Z,17.10
2022-11-29T12:28:34.161Z,14.47
2022-11-29T12:31:19.210Z,15.57
2022-11-29T12:34:10.716Z,16.90
2022-11-29T12:36:51.007Z,18.00
2022-11-29T12:39:38.856Z,17.00
2022-11-29T12:42:26.477Z,15.73
2022-11-29T12:45:36.312Z,15.23
2022-11-29T12:48:34.584Z,14.50
2022-11-29T12:51:10.596Z,17.03
2022-11-29T12:53:43.210Z,16.93
2022-11-29T12:56:30.045Z,16.17
2022-11-29T12:59:09.719Z,22.77
2022-11-29T13:02:21.090Z,16.97
2022-11-29T13:05:00.024Z,14.87
2022-11-29T13:07:46.660Z,15.77
2022-11-29T13:10:39.173Z,16.77
2022-11-29T13:13:19.991Z,15.07
2022-11-29T13:15:49.917Z,14.73
2022-11-29T13:18:35.367Z,15.67
2022-11-29T13:21:11.243Z,15.27
2022-11-29T13:24:10.527Z,15.93
2022-11-29T13:26:40.105Z,14.57
2022-11-29T13:29:13.119Z,17.67
2022-11-29T13:31:40.374Z,28.53
2022-11-29T13:34:22.586Z,21.57
2022-11-29T13:36:49.655Z,16.57
2022-11-29T13:39:58.336Z,15.23
2022-11-29T13:42:38.315Z,14.80
2022-11-29T13:45:05.358Z,15.87
2022-11-29T13:47:32.071Z,15.37
2022-11-29T13:50:06.619Z,15.67
2022-11-29T13:52:43.465Z,15.77
2022-11-29T13:55:14.246Z,15.23
2022-11-29T13:58:16.276Z,14.83
2022-11-29T14:00:46.647Z,14.93
2022-11-29T14:03:28.870Z,14.63
2022-11-29T14:06:01.657Z,15.50
2022-11-29T14:08:37.881Z,14.60
2022-11-29T14:11:14.544Z,17.00
2022-11-29T14:13:41.524Z,14.87
2022-11-29T14:16:18.002Z,14.30
2022-11-29T14:18:44.536Z,15.13
2022-11-29T14:21:11.625Z,14.77
2022-11-29T14:23:43.084Z,15.40
2022-11-29T14:26:09.715Z,14.63
2022-11-29T14:28:39.183Z,13.13
2022-11-29T14:31:07.724Z,13.63
2022-11-29T14:33:34.749Z,13.17
2022-11-29T14:36:26.455Z,14.57
2022-11-29T14:39:33.110Z,15.90
2022-11-29T14:42:06.344Z,14.73
2022-11-29T14:44:42.408Z,13.43
2022-11-29T14:47:20.944Z,14.03
2022-11-29T14:49:48.024Z,15.43
2022-11-29T14:52:14.632Z,15.67
2022-11-29T14:55:01.239Z,14.27
2022-11-29T14:57:49.654Z,15.47
2022-11-29T15:00:38.906Z,16.03
2022-11-29T15:03:32.808Z,15.50
2022-11-29T15:06:10.500Z,16.33
2022-11-29T15:08:52.572Z,34.60
2022-11-29T15:11:52.650Z,18.33
2022-11-29T15:14:27.294Z,17.40
2022-11-29T15:17:27.760Z,17.07
2022-11-29T15:20:30.930Z,17.70
2022-11-29T15:23:04.928Z,16.30
2022-11-29T15:25:32.842Z,16.07
2022-11-29T15:28:02.133Z,16.40
2022-11-29T15:30:33.903Z,18.47
2022-11-29T15:33:03.279Z,18.00
2022-11-29T15:35:30.605Z,14.43
2022-11-29T15:37:57.508Z,17.23
2022-11-29T15:40:31.359Z,18.23
2022-11-29T15:43:01.914Z,19.10
2022-11-29T15:45:33.822Z,20.13
2022-11-29T15:48:19.836Z,16.03
2022-11-29T15:51:15.942Z,17.10
2022-11-29T15:53:43.195Z,16.20
2022-11-29T15:56:19.672Z,14.47
2022-11-29T15:58:49.309Z,14.97
2022-11-29T16:01:20.984Z,15.33
2022-11-29T16:03:51.123Z,15.10
2022-11-29T16:06:38.482Z,14.77
2022-11-29T16:09:12.573Z,16.83
2022-11-29T16:11:40.000Z,16.23
2022-11-29T16:14:07.167Z,15.83
2022-11-29T16:16:35.471Z,15.53
2022-11-29T16:19:19.034Z,15.50
2022-11-29T16:21:45.681Z,16.03
2022-11-29T16:24:21.727Z,14.87
2022-11-29T16:26:50.547Z,16.57
2022-11-29T16:29:35.749Z,14.80
2022-11-29T16:32:18.003Z,15.10
2022-11-29T16:34:45.474Z,16.40
2022-11-29T16:37:18.522Z,17.30
2022-11-29T16:39:48.073Z,21.35
2022-11-29T16:42:28.133Z,16.87
2022-11-29T16:45:27.126Z,14.97
2022-11-29T16:47:58.836Z,15.67
2022-11-29T16:50:27.919Z,15.73
2022-11-29T16:52:56.828Z,15.40
2022-11-29T16:55:24.337Z,15.27
2022-11-29T16:57:52.184Z,14.87
2022-11-29T17:00:24.243Z,17.50
2022-11-29T17:02:50.955Z,16.30
2022-11-29T17:05:18.018Z,16.97
2022-11-29T17:07:45.128Z,15.70
2022-11-29T17:10:17.776Z,17.83
2022-11-29T17:12:48.227Z,17.63
2022-11-29T17:15:15.224Z,17.73
2022-11-29T17:17:43.364Z,18.43
2022-11-29T17:20:12.607Z,18.00
2022-11-29T17:22:39.311Z,17.43
2022-11-29T17:25:06.417Z,17.23
2022-11-29T17:27:33.457Z,16.57
2022-11-29T17:30:00.462Z,18.03
2022-11-29T17:32:27.329Z,17.70
2022-11-29T17:34:54.451Z,18.60
2022-11-29T17:37:21.477Z,17.77
2022-11-29T17:39:49.033Z,24.07
2022-11-29T17:42:16.144Z,27.77
2022-11-29T17:44:43.234Z,19.90
2022-11-29T17:47:10.241Z,19.07
2022-11-29T17:49:37.227Z,15.27
2022-11-29T17:52:03.931Z,16.00
2022-11-29T17:54:32.978Z,16.03
2022-11-29T17:57:00.819Z,15.03
2022-11-29T17:59:27.504Z,14.70
2022-11-29T18:01:54.160Z,16.00
2022-11-29T18:04:20.895Z,17.37
2022-11-29T18:06:50.192Z,15.37
2022-11-29T18:09:18.129Z,17.50
2022-11-29T18:11:48.744Z,15.80
2022-11-29T18:14:23.233Z,15.83
2022-11-29T18:16:50.400Z,15.20
2022-11-29T18:19:19.084Z,15.83
2022-11-29T18:21:46.423Z,16.13
2022-11-29T18:24:13.432Z,14.60
2022-11-29T18:26:40.248Z,17.07
2022-11-29T18:29:07.474Z,16.07
2022-11-29T18:31:39.851Z,15.50
2022-11-29T18:34:09.414Z,15.83
2022-11-29T18:36:39.723Z,17.50
2022-11-29T18:39:09.025Z,18.20
2022-11-29T18:41:36.695Z,17.33
2022-11-29T18:44:09.349Z,15.57
2022-11-29T18:46:38.512Z,18.60
2022-11-29T18:49:07.832Z,18.47
2022-11-29T18:51:35.113Z,16.30
2022-11-29T18:54:02.450Z,15.80
2022-11-29T18:56:31.882Z,17.53
2022-11-29T18:58:58.946Z,18.47
2022-11-29T19:01:28.330Z,17.27
2022-11-29T19:03:57.083Z,17.27
2022-11-29T19:06:26.336Z,14.93
2022-11-29T19:08:53.759Z,18.03
2022-11-29T19:11:23.138Z,18.63
2022-11-29T19:13:56.181Z,18.07
2022-11-29T19:16:24.348Z,17.07
2022-11-29T19:18:54.941Z,17.53
2022-11-29T19:21:23.231Z,18.63
2022-11-29T19:23:57.991Z,17.23
2022-11-29T19:26:27.133Z,18.33
2022-11-29T19:28:54.269Z,16.03
2022-11-29T19:31:24.807Z,14.77
2022-11-29T19:33:52.547Z,14.67
2022-11-29T19:36:30.868Z,16.17
2022-11-29T19:39:01.880Z,14.87
2022-11-29T19:41:33.696Z,15.93
2022-11-29T19:44:06.185Z,14.63
2022-11-29T19:46:36.423Z,13.13
2022-11-29T19:49:04.912Z,14.90
2022-11-29T19:51:32.333Z,14.83
2022-11-29T19:54:01.878Z,15.27
2022-11-29T19:56:29.523Z,14.20
2022-11-29T19:58:56.281Z,13.73
2022-11-29T20:01:25.268Z,14.97
2022-11-29T20:03:52.519Z,14.47
2022-11-29T20:06:19.599Z,13.77
2022-11-29T20:08:46.712Z,14.90
2022-11-29T20:11:16.970Z,12.60
2022-11-29T20:13:47.545Z,14.37
2022-11-29T20:16:18.137Z,13.40
2022-11-29T20:18:50.718Z,12.67
2022-11-29T20:21:22.053Z,12.57
2022-11-29T20:23:49.328Z,13.43
2022-11-29T20:26:18.400Z,12.73
2022-11-29T20:28:46.210Z,13.30
2022-11-29T20:31:18.793Z,12.23
2022-11-29T20:33:46.946Z,12.90
2022-11-29T20:36:39.497Z,11.43
2022-11-29T20:39:28.847Z,11.43
2022-11-29T20:42:26.325Z,11.10
2022-11-29T20:44:55.342Z,12.87
2022-11-29T20:47:31.772Z,12.67
2022-11-29T20:49:58.605Z,13.20
2022-11-29T20:52:51.492Z,12.53
2022-11-29T20:55:18.464Z,13.87
2022-11-29T20:57:45.479Z,12.83
2022-11-29T21:00:13.132Z,13.97
2022-11-29T21:02:39.884Z,14.60
2022-11-29T21:05:07.316Z,15.00
2022-11-29T21:07:34.559Z,14.47
2022-11-29T21:10:02.131Z,14.77
2022-11-29T21:12:29.938Z,14.70
2022-11-29T21:14:57.272Z,14.50
2022-11-29T21:17:30.121Z,15.47
2022-11-29T21:20:00.264Z,15.17
2022-11-29T21:22:32.425Z,15.73
2022-11-29T21:25:31.187Z,14.87
2022-11-29T21:27:58.427Z,14.87
2022-11-29T21:30:25.575Z,16.37
2022-11-29T21:32:52.739Z,16.30
2022-11-29T21:35:19.539Z,14.57
2022-11-29T21:37:46.694Z,17.03
2022-11-29T21:40:14.915Z,15.60
2022-11-29T21:42:41.978Z,15.50
2022-11-29T21:45:14.903Z,16.43
2022-11-29T21:47:43.900Z,16.50
2022-11-29T21:50:11.856Z,15.77
2022-11-29T21:52:39.017Z,14.47
2022-11-29T21:55:06.134Z,14.30
2022-11-29T21:57:33.141Z,15.43
2022-11-29T22:00:00.144Z,15.20
2022-11-29T22:02:27.290Z,14.53
2022-11-29T22:04:53.909Z,15.70
2022-11-29T22:07:20.543Z,16.13
2022-11-29T22:09:47.588Z,16.17
2022-11-29T22:12:33.042Z,15.73
2022-11-29T22:15:00.610Z,15.67
2022-11-29T22:17:27.642Z,15.00
2022-11-29T22:19:54.616Z,15.83
2022-11-29T22:22:21.608Z,15.47
2022-11-29T22:24:48.373Z,16.80
2022-11-29T22:27:17.584Z,16.50
2022-11-29T22:29:45.004Z,17.03
2022-11-29T22:32:11.999Z,17.10
2022-11-29T22:34:38.744Z,15.27
2022-11-29T22:37:05.343Z,16.53
2022-11-29T22:39:32.455Z,17.37
2022-11-29T22:41:59.079Z,17.90
2022-11-29T22:44:25.698Z,15.80
2022-11-29T22:46:52.600Z,16.17
2022-11-29T22:49:19.461Z,16.33
2022-11-29T22:51:46.461Z,15.73
2022-11-29T22:54:16.254Z,16.80
2022-11-29T22:56:43.671Z,16.37
2022-11-29T22:59:10.525Z,15.80
2022-11-29T23:01:39.785Z,16.20
2022-11-29T23:04:08.007Z,16.40
2022-11-29T23:06:37.552Z,16.83
2022-11-29T23:09:11.927Z,15.10
2022-11-29T23:11:38.967Z,14.70
2022-11-29T23:14:06.001Z,16.50
2022-11-29T23:16:33.426Z,15.97
2022-11-29T23:19:00.733Z,16.50
2022-11-29T23:21:32.767Z,15.87
2022-11-29T23:24:02.704Z,15.03
2022-11-29T23:26:40.068Z,16.23
2022-11-29T23:29:08.996Z,15.80
2022-11-29T23:31:35.884Z,16.10
2022-11-29T23:34:03.328Z,15.40
2022-11-29T23:36:30.282Z,15.73
2022-11-29T23:38:57.290Z,15.93
2022-11-29T23:41:23.904Z,16.80
2022-11-29T23:43:51.143Z,15.80
2022-11-29T23:46:20.957Z,14.40
2022-11-29T23:48:48.370Z,15.43
2022-11-29T23:51:15.494Z,16.97
2022-11-29T23:53:42.561Z,16.73
2022-11-29T23:56:14.588Z,15.20
2022-11-29T23:58:41.947Z,16.50
